Bookmark and Share
Track history (hours):
 

Vohburg

Last reported at 2014-Apr-24 02:12 UTC. Time now 2014-Apr-24 06:14 UTC.
Position N 57°43' E 010°04'.

Length 140 m; draft 5.7 m.

Type: Ship (hazmat cat A). MMSI: 305773000.

NotesDate/timePositionNaut miles runAvg speedWind from/ knotsBaromVisibWave heightAir tempDewpointWater temp
2014-Apr-24 02:12N 57°43' E 010°04'1117.3
2014-Apr-24 01:33N 57°47' E 010°24'1616.1
2014-Apr-24 00:33N 57°45' E 010°54'1717.3
2014-Apr-23 23:34N 57°33' E 011°18'1717.0
2014-Apr-23 22:33N 57°18' E 011°33'1717.2
2014-Apr-23 21:33N 57°02' E 011°44'3417.0
2014-Apr-23 19:33N 56°30' E 012°05'1717.3
2014-Apr-23 18:34N 56°15' E 012°23'1818.0
2014-Apr-23 17:34N 56°00' E 012°41'1716.8
2014-Apr-23 16:34N 55°45' E 012°53'1313.0
2014-Apr-23 15:34N 55°32' E 012°47'1414.4
2014-Apr-23 14:33N 55°18' E 012°42'1616.3
2014-Apr-23 13:33N 55°15' E 013°10'1716.7
2014-Apr-23 12:33N 55°14' E 013°39'1717.4
2014-Apr-23 11:33N 55°14' E 014°10'1616.0
2014-Apr-23 10:33N 55°24' E 014°31'1615.8
2014-Apr-23 09:33N 55°27' E 014°59'1716.5
2014-Apr-23 08:33N 55°28' E 015°28'5016.6
2014-Apr-23 05:33N 55°30' E 016°55'1716.6
2014-Apr-23 04:33N 55°31' E 017°24'1716.6
2014-Apr-23 03:33N 55°33' E 017°54'1716.7
2014-Apr-23 02:34N 55°35' E 018°23'1716.7
2014-Apr-23 01:34N 55°37' E 018°52'1716.6
2014-Apr-23 00:33N 55°39' E 019°21'258 9.1
2014-Apr-21 20:13N 59°32' E 022°45'1117.0
2014-Apr-21 19:33N 59°35' E 023°06'1717.0
2014-Apr-21 18:34N 59°40' E 023°38'1716.9
2014-Apr-21 17:33N 59°45' E 024°11'1716.7
2014-Apr-21 16:33N 59°51' E 024°41'1616.2
2014-Apr-21 15:34N 60°01' E 025°06'11 2.2
2014-Apr-21 10:31N 60°11' E 025°13'1414.7
2014-Apr-21 09:33N 59°58' E 025°01'3 3.0
2014-Apr-21 08:33N 59°58' E 024°55'0 0.0
2014-Apr-21 07:33N 59°58' E 024°55'0 0.0
2014-Apr-21 06:33N 59°58' E 024°55'0 0.0
2014-Apr-21 05:33N 59°58' E 024°55'16 8.2
2014-Apr-21 03:33N 59°54' E 025°27'3210.6
2014-Apr-21 00:33N 60°01' E 026°29'1010.5
2014-Apr-20 23:33N 60°00' E 026°50'3 0.1
2014-Apr-19 17:31N 59°59' E 026°55'1515.1
2014-Apr-19 16:33N 59°57' E 026°26'4715.5
2014-Apr-19 13:32N 59°46' E 024°55'1515.5
2014-Apr-19 12:34N 59°43' E 024°26'1615.5
2014-Apr-19 11:31N 59°38' E 023°55'1515.6
2014-Apr-19 10:32N 59°33' E 023°27'30815.1
2014-Apr-18 14:14N 55°59' E 016°33'1015.2
2014-Apr-18 13:33N 55°54' E 016°17'3615.4
2014-Apr-18 11:11N 55°36' E 015°21'1015.1
2014-Apr-18 10:33N 55°31' E 015°06'1515.3
2014-Apr-18 09:33N 55°24' E 014°42'1515.4
2014-Apr-18 08:33N 55°13' E 014°24'1515.4
2014-Apr-18 07:33N 55°01' E 014°06'1615.5
2014-Apr-18 06:33N 54°55' E 013°40'1515.4
2014-Apr-18 05:33N 54°50' E 013°15'1515.2
2014-Apr-18 04:33N 54°45' E 012°50'1515.3
2014-Apr-18 03:33N 54°38' E 012°27'1514.9
2014-Apr-18 02:33N 54°26' E 012°12'1514.9
2014-Apr-18 01:33N 54°20' E 011°49'1615.5
2014-Apr-18 00:33N 54°12' E 011°26'1515.2
2014-Apr-17 23:33N 54°03' E 011°04'1 0.1
2014-Apr-17 03:33N 54°03' E 011°02'1413.6
2014-Apr-17 02:33N 54°13' E 011°19'1312.9
2014-Apr-17 01:33N 54°25' E 011°24'1313.2
2014-Apr-17 00:33N 54°35' E 011°09'91 4.6
2014-Apr-16 04:33N 56°04' E 010°34'1313.4
2014-Apr-16 03:33N 56°05' E 010°58'1414.1
2014-Apr-16 02:33N 56°07' E 011°23'1414.1
2014-Apr-16 01:34N 56°09' E 011°48'1414.5
2014-Apr-16 00:34N 56°11' E 012°14'1313.1
2014-Apr-15 23:33N 56°06' E 012°35'1313.0
2014-Apr-15 22:33N 55°54' E 012°44'1313.4
2014-Apr-15 21:34N 55°40' E 012°41'1413.7
2014-Apr-15 20:33N 55°27' E 012°42'1211.5
2014-Apr-15 19:33N 55°16' E 012°50'1414.0
2014-Apr-15 18:34N 55°15' E 013°14'1413.9
2014-Apr-15 17:33N 55°14' E 013°39'1414.2
2014-Apr-15 16:33N 55°14' E 014°04'1313.3
2014-Apr-15 15:33N 55°19' E 014°25'1413.9
2014-Apr-15 14:33N 55°28' E 014°44'14 7.1
2014-Apr-15 12:34N 55°36' E 015°05'1513.8
2014-Apr-15 11:30N 55°43' E 015°28'2814.3
2014-Apr-15 09:34N 55°57' E 016°10'31214.1
2014-Apr-14 11:30N 59°36' E 023°07'1314.1
2014-Apr-14 10:34N 59°39' E 023°32'1414.1
2014-Apr-14 09:33N 59°44' E 023°59'1414.0
2014-Apr-14 08:34N 59°48' E 024°25'2713.4
2014-Apr-14 06:33N 60°04' E 025°09'  

Dump ship's entire track history

sailing weather and tide predictions

Vohburg — V2OW7 — position and weather